sensor_id;sensor_type;location;lat;lon;timestamp;temperature;humidity
46117;DHT22;32591;48.102;11.772;2023-07-02T00:02:26;17.90;99.90
46117;DHT22;32591;48.102;11.772;2023-07-02T00:04:52;17.90;99.90
46117;DHT22;32591;48.102;11.772;2023-07-02T00:07:19;17.90;99.90
46117;DHT22;32591;48.102;11.772;2023-07-02T00:09:48;17.90;99.90
46117;DHT22;32591;48.102;11.772;2023-07-02T00:12:16;17.80;99.90
46117;DHT22;32591;48.102;11.772;2023-07-02T00:14:43;17.80;99.90
46117;DHT22;32591;48.102;11.772;2023-07-02T00:17:10;17.80;99.90
46117;DHT22;32591;48.102;11.772;2023-07-02T00:19:38;17.80;99.90
46117;DHT22;32591;48.102;11.772;2023-07-02T00:22:07;17.90;99.90
46117;DHT22;32591;48.102;11.772;2023-07-02T00:24:34;17.80;99.90
46117;DHT22;32591;48.102;11.772;2023-07-02T00:27:03;17.80;99.90
46117;DHT22;32591;48.102;11.772;2023-07-02T00:29:30;17.70;99.90
46117;DHT22;32591;48.102;11.772;2023-07-02T00:31:57;17.70;99.90
46117;DHT22;32591;48.102;11.772;2023-07-02T00:34:25;17.70;99.90
46117;DHT22;32591;48.102;11.772;2023-07-02T00:36:52;17.70;99.90
46117;DHT22;32591;48.102;11.772;2023-07-02T00:39:19;17.50;99.90
46117;DHT22;32591;48.102;11.772;2023-07-02T00:41:47;17.40;99.90
46117;DHT22;32591;48.102;11.772;2023-07-02T00:44:16;17.50;99.90
46117;DHT22;32591;48.102;11.772;2023-07-02T00:46:43;17.50;99.90
46117;DHT22;32591;48.102;11.772;2023-07-02T00:49:10;17.50;99.90
46117;DHT22;32591;48.102;11.772;2023-07-02T00:51:37;17.50;99.90
46117;DHT22;32591;48.102;11.772;2023-07-02T00:54:04;17.30;99.90
46117;DHT22;32591;48.102;11.772;2023-07-02T00:56:31;17.20;99.90
46117;DHT22;32591;48.102;11.772;2023-07-02T00:58:58;17.10;99.90
46117;DHT22;32591;48.102;11.772;2023-07-02T01:01:28;17.10;99.90
46117;DHT22;32591;48.102;11.772;2023-07-02T01:03:57;17.10;99.90
46117;DHT22;32591;48.102;11.772;2023-07-02T01:06:26;17.00;99.90
46117;DHT22;32591;48.102;11.772;2023-07-02T01:08:55;17.20;99.90
46117;DHT22;32591;48.102;11.772;2023-07-02T01:11:26;16.90;99.90
46117;DHT22;32591;48.102;11.772;2023-07-02T01:13:59;16.80;99.90
46117;DHT22;32591;48.102;11.772;2023-07-02T01:16:29;16.80;99.90
46117;DHT22;32591;48.102;11.772;2023-07-02T01:18:59;16.80;99.90
46117;DHT22;32591;48.102;11.772;2023-07-02T01:21:31;16.80;99.90
46117;DHT22;32591;48.102;11.772;2023-07-02T01:23:59;16.70;99.90
46117;DHT22;32591;48.102;11.772;2023-07-02T01:26:31;16.70;99.90
46117;DHT22;32591;48.102;11.772;2023-07-02T01:29:00;16.60;99.90
46117;DHT22;32591;48.102;11.772;2023-07-02T01:31:27;16.60;99.90
46117;DHT22;32591;48.102;11.772;2023-07-02T01:33:54;16.60;99.90
46117;DHT22;32591;48.102;11.772;2023-07-02T01:36:21;16.80;99.90
46117;DHT22;32591;48.102;11.772;2023-07-02T01:38:49;16.80;99.90
46117;DHT22;32591;48.102;11.772;2023-07-02T01:41:16;16.80;99.90
46117;DHT22;32591;48.102;11.772;2023-07-02T01:43:43;16.80;99.90
46117;DHT22;32591;48.102;11.772;2023-07-02T01:46:10;16.80;99.90
46117;DHT22;32591;48.102;11.772;2023-07-02T01:48:37;16.90;99.90
46117;DHT22;32591;48.102;11.772;2023-07-02T01:51:04;16.90;99.90
46117;DHT22;32591;48.102;11.772;2023-07-02T01:53:31;16.90;99.90
46117;DHT22;32591;48.102;11.772;2023-07-02T01:55:59;16.90;99.90
46117;DHT22;32591;48.102;11.772;2023-07-02T01:58:26;16.90;99.90
46117;DHT22;32591;48.102;11.772;2023-07-02T02:00:53;16.90;99.90
46117;DHT22;32591;48.102;11.772;2023-07-02T02:03:21;16.90;99.90
46117;DHT22;32591;48.102;11.772;2023-07-02T02:05:48;16.80;99.90
46117;DHT22;32591;48.102;11.772;2023-07-02T02:08:15;16.90;99.90
46117;DHT22;32591;48.102;11.772;2023-07-02T02:10:42;16.90;99.90
46117;DHT22;32591;48.102;11.772;2023-07-02T02:13:10;17.00;99.90
46117;DHT22;32591;48.102;11.772;2023-07-02T02:15:37;16.90;99.90
46117;DHT22;32591;48.102;11.772;2023-07-02T02:18:04;16.80;99.90
46117;DHT22;32591;48.102;11.772;2023-07-02T02:20:32;16.70;99.90
46117;DHT22;32591;48.102;11.772;2023-07-02T02:22:59;16.70;99.90
46117;DHT22;32591;48.102;11.772;2023-07-02T02:25:26;16.70;99.90
46117;DHT22;32591;48.102;11.772;2023-07-02T02:27:53;16.70;99.90
46117;DHT22;32591;48.102;11.772;2023-07-02T02:30:21;16.70;99.90
46117;DHT22;32591;48.102;11.772;2023-07-02T02:32:48;16.80;99.90
46117;DHT22;32591;48.102;11.772;2023-07-02T02:35:15;16.80;99.90
46117;DHT22;32591;48.102;11.772;2023-07-02T02:37:42;16.70;99.90
46117;DHT22;32591;48.102;11.772;2023-07-02T02:40:10;16.80;99.90
46117;DHT22;32591;48.102;11.772;2023-07-02T02:42:38;16.70;99.90
46117;DHT22;32591;48.102;11.772;2023-07-02T02:45:06;16.60;99.90
46117;DHT22;32591;48.102;11.772;2023-07-02T02:47:39;16.60;99.90
46117;DHT22;32591;48.102;11.772;2023-07-02T02:50:07;16.60;99.90
46117;DHT22;32591;48.102;11.772;2023-07-02T02:52:35;16.60;99.90
46117;DHT22;32591;48.102;11.772;2023-07-02T02:55:02;16.60;99.90
46117;DHT22;32591;48.102;11.772;2023-07-02T02:57:30;16.60;99.90
46117;DHT22;32591;48.102;11.772;2023-07-02T02:59:57;16.70;99.90
46117;DHT22;32591;48.102;11.772;2023-07-02T03:02:24;16.70;99.90
46117;DHT22;32591;48.102;11.772;2023-07-02T03:04:52;16.80;99.90
46117;DHT22;32591;48.102;11.772;2023-07-02T03:07:20;16.90;99.90
46117;DHT22;32591;48.102;11.772;2023-07-02T03:09:47;16.90;99.90
46117;DHT22;32591;48.102;11.772;2023-07-02T03:12:14;16.90;99.90
46117;DHT22;32591;48.102;11.772;2023-07-02T03:14:41;17.00;99.90
46117;DHT22;32591;48.102;11.772;2023-07-02T03:17:08;17.00;99.90
46117;DHT22;32591;48.102;11.772;2023-07-02T03:19:35;17.00;99.90
46117;DHT22;32591;48.102;11.772;2023-07-02T03:22:03;17.00;99.90
46117;DHT22;32591;48.102;11.772;2023-07-02T03:24:31;17.00;99.90
46117;DHT22;32591;48.102;11.772;2023-07-02T03:26:58;17.00;99.90
46117;DHT22;32591;48.102;11.772;2023-07-02T03:29:25;17.00;99.90
46117;DHT22;32591;48.102;11.772;2023-07-02T03:31:52;16.90;99.90
46117;DHT22;32591;48.102;11.772;2023-07-02T03:34:19;16.90;99.90
46117;DHT22;32591;48.102;11.772;2023-07-02T03:36:45;16.90;99.90
46117;DHT22;32591;48.102;11.772;2023-07-02T03:39:14;16.80;99.90
46117;DHT22;32591;48.102;11.772;2023-07-02T03:41:42;16.80;99.90
46117;DHT22;32591;48.102;11.772;2023-07-02T03:44:09;16.70;99.90
46117;DHT22;32591;48.102;11.772;2023-07-02T03:46:37;16.70;99.90
46117;DHT22;32591;48.102;11.772;2023-07-02T03:49:04;16.30;99.90
46117;DHT22;32591;48.102;11.772;2023-07-02T03:51:31;15.80;99.90
46117;DHT22;32591;48.102;11.772;2023-07-02T03:53:58;15.60;99.90
46117;DHT22;32591;48.102;11.772;2023-07-02T03:56:27;15.40;99.90
46117;DHT22;32591;48.102;11.772;2023-07-02T03:58:54;15.30;99.90
46117;DHT22;32591;48.102;11.772;2023-07-02T04:01:20;15.20;99.90
46117;DHT22;32591;48.102;11.772;2023-07-02T04:03:48;15.10;99.90
46117;DHT22;32591;48.102;11.772;2023-07-02T04:06:16;14.90;99.90
46117;DHT22;32591;48.102;11.772;2023-07-02T04:08:43;14.90;99.90
46117;DHT22;32591;48.102;11.772;2023-07-02T04:11:11;14.90;99.90
46117;DHT22;32591;48.102;11.772;2023-07-02T04:13:40;14.90;99.90
46117;DHT22;32591;48.102;11.772;2023-07-02T04:16:07;14.90;99.90
46117;DHT22;32591;48.102;11.772;2023-07-02T04:18:34;14.70;99.90
46117;DHT22;32591;48.102;11.772;2023-07-02T04:21:02;14.80;99.90
46117;DHT22;32591;48.102;11.772;2023-07-02T04:23:29;14.80;99.90
46117;DHT22;32591;48.102;11.772;2023-07-02T04:25:56;14.80;99.90
46117;DHT22;32591;48.102;11.772;2023-07-02T04:28:23;14.70;99.90
46117;DHT22;32591;48.102;11.772;2023-07-02T04:30:51;14.90;99.90
46117;DHT22;32591;48.102;11.772;2023-07-02T04:33:18;14.90;99.90
46117;DHT22;32591;48.102;11.772;2023-07-02T04:35:46;15.00;99.90
46117;DHT22;32591;48.102;11.772;2023-07-02T04:38:13;15.10;99.90
46117;DHT22;32591;48.102;11.772;2023-07-02T04:40:40;15.20;99.90
46117;DHT22;32591;48.102;11.772;2023-07-02T04:43:10;15.30;99.90
46117;DHT22;32591;48.102;11.772;2023-07-02T04:45:37;15.30;99.90
46117;DHT22;32591;48.102;11.772;2023-07-02T04:48:06;15.30;99.90
46117;DHT22;32591;48.102;11.772;2023-07-02T04:50:34;15.30;99.90
46117;DHT22;32591;48.102;11.772;2023-07-02T04:53:01;15.30;99.90
46117;DHT22;32591;48.102;11.772;2023-07-02T04:55:28;15.40;99.90
46117;DHT22;32591;48.102;11.772;2023-07-02T04:57:55;15.50;99.90
46117;DHT22;32591;48.102;11.772;2023-07-02T05:00:22;15.50;99.90
46117;DHT22;32591;48.102;11.772;2023-07-02T05:02:49;15.50;99.90
46117;DHT22;32591;48.102;11.772;2023-07-02T05:05:17;15.60;99.90
46117;DHT22;32591;48.102;11.772;2023-07-02T05:07:44;15.60;99.90
46117;DHT22;32591;48.102;11.772;2023-07-02T05:10:11;15.70;99.90
46117;DHT22;32591;48.102;11.772;2023-07-02T05:12:38;15.70;99.90
46117;DHT22;32591;48.102;11.772;2023-07-02T05:15:06;15.70;99.90
46117;DHT22;32591;48.102;11.772;2023-07-02T05:17:34;15.60;99.90
46117;DHT22;32591;48.102;11.772;2023-07-02T05:20:02;15.50;99.90
46117;DHT22;32591;48.102;11.772;2023-07-02T05:22:31;15.50;99.90
46117;DHT22;32591;48.102;11.772;2023-07-02T05:24:58;15.50;99.90
46117;DHT22;32591;48.102;11.772;2023-07-02T05:27:25;15.50;99.90
46117;DHT22;32591;48.102;11.772;2023-07-02T05:29:52;15.40;99.90
46117;DHT22;32591;48.102;11.772;2023-07-02T05:32:19;15.40;99.90
46117;DHT22;32591;48.102;11.772;2023-07-02T05:34:45;15.40;99.90
46117;DHT22;32591;48.102;11.772;2023-07-02T05:37:13;15.40;99.90
46117;DHT22;32591;48.102;11.772;2023-07-02T05:39:41;15.40;99.90
46117;DHT22;32591;48.102;11.772;2023-07-02T05:42:08;15.20;99.90
46117;DHT22;32591;48.102;11.772;2023-07-02T05:44:35;15.20;99.90
46117;DHT22;32591;48.102;11.772;2023-07-02T05:47:03;15.30;99.90
46117;DHT22;32591;48.102;11.772;2023-07-02T05:49:30;15.40;99.90
46117;DHT22;32591;48.102;11.772;2023-07-02T05:51:56;15.40;99.90
46117;DHT22;32591;48.102;11.772;2023-07-02T05:54:23;15.40;99.90
46117;DHT22;32591;48.102;11.772;2023-07-02T05:56:52;15.60;99.90
46117;DHT22;32591;48.102;11.772;2023-07-02T05:59:19;15.60;99.90
46117;DHT22;32591;48.102;11.772;2023-07-02T06:01:46;15.60;99.90
46117;DHT22;32591;48.102;11.772;2023-07-02T06:04:13;15.60;99.90
46117;DHT22;32591;48.102;11.772;2023-07-02T06:06:40;15.70;99.90
46117;DHT22;32591;48.102;11.772;2023-07-02T06:09:07;15.80;99.90
46117;DHT22;32591;48.102;11.772;2023-07-02T06:11:34;15.80;99.90
46117;DHT22;32591;48.102;11.772;2023-07-02T06:14:02;15.80;99.90
46117;DHT22;32591;48.102;11.772;2023-07-02T06:16:29;15.80;99.90
46117;DHT22;32591;48.102;11.772;2023-07-02T06:18:56;15.80;99.90
46117;DHT22;32591;48.102;11.772;2023-07-02T06:21:23;15.90;99.90
46117;DHT22;32591;48.102;11.772;2023-07-02T06:23:55;15.90;99.90
46117;DHT22;32591;48.102;11.772;2023-07-02T06:26:24;15.90;99.90
46117;DHT22;32591;48.102;11.772;2023-07-02T06:28:51;16.00;99.90
46117;DHT22;32591;48.102;11.772;2023-07-02T06:31:19;16.10;99.90
46117;DHT22;32591;48.102;11.772;2023-07-02T06:33:46;16.10;99.90
46117;DHT22;32591;48.102;11.772;2023-07-02T06:36:13;16.10;99.90
46117;DHT22;32591;48.102;11.772;2023-07-02T06:38:40;16.10;99.90
46117;DHT22;32591;48.102;11.772;2023-07-02T06:41:07;16.10;99.90
46117;DHT22;32591;48.102;11.772;2023-07-02T06:43:34;16.00;99.90
46117;DHT22;32591;48.102;11.772;2023-07-02T06:46:02;16.00;99.90
46117;DHT22;32591;48.102;11.772;2023-07-02T06:48:30;16.00;99.90
46117;DHT22;32591;48.102;11.772;2023-07-02T06:50:57;16.00;99.90
46117;DHT22;32591;48.102;11.772;2023-07-02T06:53:24;16.00;99.90
46117;DHT22;32591;48.102;11.772;2023-07-02T06:55:51;16.00;99.90
46117;DHT22;32591;48.102;11.772;2023-07-02T06:58:17;16.00;99.90
46117;DHT22;32591;48.102;11.772;2023-07-02T07:00:45;16.10;99.90
46117;DHT22;32591;48.102;11.772;2023-07-02T07:03:12;16.10;99.90
46117;DHT22;32591;48.102;11.772;2023-07-02T07:05:40;16.10;99.90
46117;DHT22;32591;48.102;11.772;2023-07-02T07:08:08;16.10;99.90
46117;DHT22;32591;48.102;11.772;2023-07-02T07:10:35;16.20;99.90
46117;DHT22;32591;48.102;11.772;2023-07-02T07:13:02;16.20;99.90
46117;DHT22;32591;48.102;11.772;2023-07-02T07:15:32;16.20;99.90
46117;DHT22;32591;48.102;11.772;2023-07-02T07:18:00;16.20;99.90
46117;DHT22;32591;48.102;11.772;2023-07-02T07:20:27;16.10;99.90
46117;DHT22;32591;48.102;11.772;2023-07-02T07:22:56;16.00;99.90
46117;DHT22;32591;48.102;11.772;2023-07-02T07:25:24;15.70;99.90
46117;DHT22;32591;48.102;11.772;2023-07-02T07:27:51;15.70;99.90
46117;DHT22;32591;48.102;11.772;2023-07-02T07:30:19;15.70;99.90
46117;DHT22;32591;48.102;11.772;2023-07-02T07:32:49;15.70;99.90
46117;DHT22;32591;48.102;11.772;2023-07-02T07:35:16;15.80;99.90
46117;DHT22;32591;48.102;11.772;2023-07-02T07:37:44;15.80;99.90
46117;DHT22;32591;48.102;11.772;2023-07-02T07:40:13;15.80;99.90
46117;DHT22;32591;48.102;11.772;2023-07-02T07:42:41;15.60;99.90
46117;DHT22;32591;48.102;11.772;2023-07-02T07:45:09;15.50;99.90
46117;DHT22;32591;48.102;11.772;2023-07-02T07:47:37;15.50;99.90
46117;DHT22;32591;48.102;11.772;2023-07-02T07:50:06;15.50;99.90
46117;DHT22;32591;48.102;11.772;2023-07-02T07:52:37;15.50;99.90
46117;DHT22;32591;48.102;11.772;2023-07-02T07:55:05;15.50;99.90
46117;DHT22;32591;48.102;11.772;2023-07-02T07:57:35;15.50;99.90
46117;DHT22;32591;48.102;11.772;2023-07-02T08:00:04;15.40;99.90
46117;DHT22;32591;48.102;11.772;2023-07-02T08:02:33;15.30;99.90
46117;DHT22;32591;48.102;11.772;2023-07-02T08:05:00;15.30;99.90
46117;DHT22;32591;48.102;11.772;2023-07-02T08:07:28;15.20;99.90
46117;DHT22;32591;48.102;11.772;2023-07-02T08:09:55;15.20;99.90
46117;DHT22;32591;48.102;11.772;2023-07-02T08:12:22;15.30;99.90
46117;DHT22;32591;48.102;11.772;2023-07-02T08:14:50;15.30;99.90
46117;DHT22;32591;48.102;11.772;2023-07-02T08:17:17;15.40;99.90
46117;DHT22;32591;48.102;11.772;2023-07-02T08:19:44;15.50;99.90
46117;DHT22;32591;48.102;11.772;2023-07-02T08:22:12;15.50;99.90
46117;DHT22;32591;48.102;11.772;2023-07-02T08:24:40;15.60;99.90
46117;DHT22;32591;48.102;11.772;2023-07-02T08:27:06;15.60;99.90
46117;DHT22;32591;48.102;11.772;2023-07-02T08:29:33;15.70;99.90
46117;DHT22;32591;48.102;11.772;2023-07-02T08:32:02;15.80;99.90
46117;DHT22;32591;48.102;11.772;2023-07-02T08:34:30;15.80;99.90
46117;DHT22;32591;48.102;11.772;2023-07-02T08:36:56;15.80;99.90
46117;DHT22;32591;48.102;11.772;2023-07-02T08:39:23;15.80;99.90
46117;DHT22;32591;48.102;11.772;2023-07-02T08:41:51;15.90;99.90
46117;DHT22;32591;48.102;11.772;2023-07-02T08:44:20;16.00;99.90
46117;DHT22;32591;48.102;11.772;2023-07-02T08:46:48;16.10;99.90
46117;DHT22;32591;48.102;11.772;2023-07-02T08:49:20;16.10;99.90
46117;DHT22;32591;48.102;11.772;2023-07-02T08:51:47;16.10;99.90
46117;DHT22;32591;48.102;11.772;2023-07-02T08:54:14;16.00;99.90
46117;DHT22;32591;48.102;11.772;2023-07-02T08:56:44;15.90;99.90
46117;DHT22;32591;48.102;11.772;2023-07-02T08:59:11;15.90;99.90
46117;DHT22;32591;48.102;11.772;2023-07-02T09:01:45;15.90;99.90
46117;DHT22;32591;48.102;11.772;2023-07-02T09:04:21;15.70;99.90
46117;DHT22;32591;48.102;11.772;2023-07-02T09:06:51;15.70;99.90
46117;DHT22;32591;48.102;11.772;2023-07-02T09:09:29;15.80;99.90
46117;DHT22;32591;48.102;11.772;2023-07-02T09:11:56;15.80;99.90
46117;DHT22;32591;48.102;11.772;2023-07-02T09:14:27;15.90;99.90
46117;DHT22;32591;48.102;11.772;2023-07-02T09:17:02;15.80;99.90
46117;DHT22;32591;48.102;11.772;2023-07-02T09:19:32;15.80;99.90
46117;DHT22;32591;48.102;11.772;2023-07-02T09:22:00;15.90;99.90
46117;DHT22;32591;48.102;11.772;2023-07-02T09:24:28;16.00;99.90
46117;DHT22;32591;48.102;11.772;2023-07-02T09:26:57;16.00;99.90
46117;DHT22;32591;48.102;11.772;2023-07-02T09:29:27;16.10;99.90
46117;DHT22;32591;48.102;11.772;2023-07-02T09:31:55;16.20;99.90
46117;DHT22;32591;48.102;11.772;2023-07-02T09:34:29;16.20;99.90
46117;DHT22;32591;48.102;11.772;2023-07-02T09:36:59;16.20;99.90
46117;DHT22;32591;48.102;11.772;2023-07-02T09:39:27;16.20;99.90
46117;DHT22;32591;48.102;11.772;2023-07-02T09:41:56;16.10;99.90
46117;DHT22;32591;48.102;11.772;2023-07-02T09:44:27;16.10;99.90
46117;DHT22;32591;48.102;11.772;2023-07-02T09:47:00;16.10;99.90
46117;DHT22;32591;48.102;11.772;2023-07-02T09:49:33;16.10;99.90
46117;DHT22;32591;48.102;11.772;2023-07-02T09:52:03;16.20;99.90
46117;DHT22;32591;48.102;11.772;2023-07-02T09:54:31;16.10;99.90
46117;DHT22;32591;48.102;11.772;2023-07-02T09:56:59;16.10;99.90
46117;DHT22;32591;48.102;11.772;2023-07-02T09:59:26;16.10;99.90
46117;DHT22;32591;48.102;11.772;2023-07-02T10:01:54;16.20;99.90
46117;DHT22;32591;48.102;11.772;2023-07-02T10:04:22;16.40;99.90
46117;DHT22;32591;48.102;11.772;2023-07-02T10:06:52;16.60;99.90
46117;DHT22;32591;48.102;11.772;2023-07-02T10:09:21;16.70;99.90
46117;DHT22;32591;48.102;11.772;2023-07-02T10:12:01;16.70;99.90
46117;DHT22;32591;48.102;11.772;2023-07-02T10:14:40;16.80;99.90
46117;DHT22;32591;48.102;11.772;2023-07-02T10:17:08;16.80;99.90
46117;DHT22;32591;48.102;11.772;2023-07-02T10:19:35;16.90;99.90
46117;DHT22;32591;48.102;11.772;2023-07-02T10:22:04;16.90;99.90
46117;DHT22;32591;48.102;11.772;2023-07-02T10:24:33;17.00;99.90
46117;DHT22;32591;48.102;11.772;2023-07-02T10:27:01;17.00;99.90
46117;DHT22;32591;48.102;11.772;2023-07-02T10:29:29;17.00;99.90
46117;DHT22;32591;48.102;11.772;2023-07-02T10:31:57;17.20;99.90
46117;DHT22;32591;48.102;11.772;2023-07-02T10:34:30;17.40;99.90
46117;DHT22;32591;48.102;11.772;2023-07-02T10:36:59;17.50;99.90
46117;DHT22;32591;48.102;11.772;2023-07-02T10:39:28;17.80;99.90
46117;DHT22;32591;48.102;11.772;2023-07-02T10:42:04;18.00;99.90
46117;DHT22;32591;48.102;11.772;2023-07-02T10:44:31;18.20;99.90
46117;DHT22;32591;48.102;11.772;2023-07-02T10:46:58;18.20;99.90
46117;DHT22;32591;48.102;11.772;2023-07-02T10:49:31;18.20;99.90
46117;DHT22;32591;48.102;11.772;2023-07-02T10:51:59;18.20;99.90
46117;DHT22;32591;48.102;11.772;2023-07-02T10:54:40;18.50;99.90
46117;DHT22;32591;48.102;11.772;2023-07-02T10:57:13;18.80;99.90
46117;DHT22;32591;48.102;11.772;2023-07-02T10:59:41;18.80;99.90
46117;DHT22;32591;48.102;11.772;2023-07-02T11:02:08;18.90;99.90
46117;DHT22;32591;48.102;11.772;2023-07-02T11:04:36;19.10;99.90
46117;DHT22;32591;48.102;11.772;2023-07-02T11:07:04;19.10;99.90
46117;DHT22;32591;48.102;11.772;2023-07-02T11:09:31;19.20;99.90
46117;DHT22;32591;48.102;11.772;2023-07-02T11:12:00;19.20;99.90
46117;DHT22;32591;48.102;11.772;2023-07-02T11:14:31;19.40;99.90
46117;DHT22;32591;48.102;11.772;2023-07-02T11:17:01;19.50;99.90
46117;DHT22;32591;48.102;11.772;2023-07-02T11:19:31;19.60;99.90
46117;DHT22;32591;48.102;11.772;2023-07-02T11:21:58;19.70;99.90
46117;DHT22;32591;48.102;11.772;2023-07-02T11:24:30;19.70;99.90
46117;DHT22;32591;48.102;11.772;2023-07-02T11:27:00;19.60;99.90
46117;DHT22;32591;48.102;11.772;2023-07-02T11:29:28;19.60;99.90
46117;DHT22;32591;48.102;11.772;2023-07-02T11:32:04;19.50;99.90
46117;DHT22;32591;48.102;11.772;2023-07-02T11:34:33;19.60;99.90
46117;DHT22;32591;48.102;11.772;2023-07-02T11:37:00;19.80;99.90
46117;DHT22;32591;48.102;11.772;2023-07-02T11:39:27;20.00;99.90
46117;DHT22;32591;48.102;11.772;2023-07-02T11:41:54;20.20;99.90
46117;DHT22;32591;48.102;11.772;2023-07-02T11:44:22;20.50;99.90
46117;DHT22;32591;48.102;11.772;2023-07-02T11:46:49;20.50;99.90
46117;DHT22;32591;48.102;11.772;2023-07-02T11:49:16;20.50;99.90
46117;DHT22;32591;48.102;11.772;2023-07-02T11:51:44;20.60;99.90
46117;DHT22;32591;48.102;11.772;2023-07-02T11:54:14;20.80;99.90
46117;DHT22;32591;48.102;11.772;2023-07-02T11:56:41;21.00;99.90
46117;DHT22;32591;48.102;11.772;2023-07-02T11:59:08;21.10;99.90
46117;DHT22;32591;48.102;11.772;2023-07-02T12:01:37;21.30;99.90
46117;DHT22;32591;48.102;11.772;2023-07-02T12:04:04;21.40;99.90
46117;DHT22;32591;48.102;11.772;2023-07-02T12:06:33;21.30;99.90
46117;DHT22;32591;48.102;11.772;2023-07-02T12:09:00;21.20;99.90
46117;DHT22;32591;48.102;11.772;2023-07-02T12:11:27;21.10;99.90
46117;DHT22;32591;48.102;11.772;2023-07-02T12:13:54;21.30;99.90
46117;DHT22;32591;48.102;11.772;2023-07-02T12:16:21;21.60;99.90
46117;DHT22;32591;48.102;11.772;2023-07-02T12:18:49;21.80;99.90
46117;DHT22;32591;48.102;11.772;2023-07-02T12:21:16;21.80;99.90
46117;DHT22;32591;48.102;11.772;2023-07-02T12:23:44;21.90;99.90
46117;DHT22;32591;48.102;11.772;2023-07-02T12:26:11;21.60;99.90
46117;DHT22;32591;48.102;11.772;2023-07-02T12:28:38;21.50;99.90
46117;DHT22;32591;48.102;11.772;2023-07-02T12:31:05;21.60;99.90
46117;DHT22;32591;48.102;11.772;2023-07-02T12:33:32;21.70;99.90
46117;DHT22;32591;48.102;11.772;2023-07-02T12:36:00;21.60;99.90
46117;DHT22;32591;48.102;11.772;2023-07-02T12:38:28;21.60;99.90
46117;DHT22;32591;48.102;11.772;2023-07-02T12:40:55;21.80;99.90
46117;DHT22;32591;48.102;11.772;2023-07-02T12:43:22;22.20;99.90
46117;DHT22;32591;48.102;11.772;2023-07-02T12:45:50;22.50;99.90
46117;DHT22;32591;48.102;11.772;2023-07-02T12:48:17;22.60;99.90
46117;DHT22;32591;48.102;11.772;2023-07-02T12:50:53;22.70;99.90
46117;DHT22;32591;48.102;11.772;2023-07-02T12:53:22;22.90;99.90
46117;DHT22;32591;48.102;11.772;2023-07-02T12:55:49;22.90;99.90
46117;DHT22;32591;48.102;11.772;2023-07-02T12:58:16;22.90;99.90
46117;DHT22;32591;48.102;11.772;2023-07-02T13:00:43;23.10;99.90
46117;DHT22;32591;48.102;11.772;2023-07-02T13:03:12;23.10;99.90
46117;DHT22;32591;48.102;11.772;2023-07-02T13:05:40;22.90;99.90
46117;DHT22;32591;48.102;11.772;2023-07-02T13:08:07;22.90;99.90
46117;DHT22;32591;48.102;11.772;2023-07-02T13:10:35;23.10;99.90
46117;DHT22;32591;48.102;11.772;2023-07-02T13:13:02;23.00;99.90
46117;DHT22;32591;48.102;11.772;2023-07-02T13:15:29;22.80;99.90
46117;DHT22;32591;48.102;11.772;2023-07-02T13:17:56;22.70;99.90
46117;DHT22;32591;48.102;11.772;2023-07-02T13:20:23;23.10;99.90
46117;DHT22;32591;48.102;11.772;2023-07-02T13:22:50;23.30;99.90
46117;DHT22;32591;48.102;11.772;2023-07-02T13:25:17;23.10;99.40
46117;DHT22;32591;48.102;11.772;2023-07-02T13:27:46;23.00;99.60
46117;DHT22;32591;48.102;11.772;2023-07-02T13:30:13;22.70;99.90
46117;DHT22;32591;48.102;11.772;2023-07-02T13:32:39;22.70;99.60
46117;DHT22;32591;48.102;11.772;2023-07-02T13:35:07;22.70;99.80
46117;DHT22;32591;48.102;11.772;2023-07-02T13:37:34;22.70;99.90
46117;DHT22;32591;48.102;11.772;2023-07-02T13:40:00;22.60;99.90
46117;DHT22;32591;48.102;11.772;2023-07-02T13:42:29;22.50;99.90
46117;DHT22;32591;48.102;11.772;2023-07-02T13:44:57;22.70;99.90
46117;DHT22;32591;48.102;11.772;2023-07-02T13:47:24;22.90;99.40
46117;DHT22;32591;48.102;11.772;2023-07-02T13:49:51;23.00;98.70
46117;DHT22;32591;48.102;11.772;2023-07-02T13:52:18;23.00;99.10
46117;DHT22;32591;48.102;11.772;2023-07-02T13:54:45;23.20;99.20
46117;DHT22;32591;48.102;11.772;2023-07-02T13:57:12;23.30;98.50
46117;DHT22;32591;48.102;11.772;2023-07-02T13:59:42;23.60;99.00
46117;DHT22;32591;48.102;11.772;2023-07-02T14:02:09;23.90;98.30
46117;DHT22;32591;48.102;11.772;2023-07-02T14:04:36;24.10;97.40
46117;DHT22;32591;48.102;11.772;2023-07-02T14:07:03;24.10;96.30
46117;DHT22;32591;48.102;11.772;2023-07-02T14:09:31;23.60;96.60
46117;DHT22;32591;48.102;11.772;2023-07-02T14:11:58;23.80;97.40
46117;DHT22;32591;48.102;11.772;2023-07-02T14:14:25;24.20;96.10
46117;DHT22;32591;48.102;11.772;2023-07-02T14:16:53;24.40;96.60
46117;DHT22;32591;48.102;11.772;2023-07-02T14:19:20;24.60;95.90
46117;DHT22;32591;48.102;11.772;2023-07-02T14:21:47;24.60;95.70
46117;DHT22;32591;48.102;11.772;2023-07-02T14:24:14;24.80;95.10
46117;DHT22;32591;48.102;11.772;2023-07-02T14:26:41;24.80;94.00
46117;DHT22;32591;48.102;11.772;2023-07-02T14:29:09;24.70;94.40
46117;DHT22;32591;48.102;11.772;2023-07-02T14:31:36;24.70;93.70
46117;DHT22;32591;48.102;11.772;2023-07-02T14:34:04;24.60;93.90
46117;DHT22;32591;48.102;11.772;2023-07-02T14:36:31;24.40;93.50
46117;DHT22;32591;48.102;11.772;2023-07-02T14:38:58;24.50;93.60
46117;DHT22;32591;48.102;11.772;2023-07-02T14:41:26;24.60;92.70
46117;DHT22;32591;48.102;11.772;2023-07-02T14:43:53;24.30;93.20
46117;DHT22;32591;48.102;11.772;2023-07-02T14:46:20;24.30;92.90
46117;DHT22;32591;48.102;11.772;2023-07-02T14:48:47;24.20;92.50
46117;DHT22;32591;48.102;11.772;2023-07-02T14:51:16;24.20;92.50
46117;DHT22;32591;48.102;11.772;2023-07-02T14:53:43;24.40;92.60
46117;DHT22;32591;48.102;11.772;2023-07-02T14:56:10;24.50;92.00
46117;DHT22;32591;48.102;11.772;2023-07-02T14:58:37;24.70;91.20
46117;DHT22;32591;48.102;11.772;2023-07-02T15:01:04;24.80;91.20
46117;DHT22;32591;48.102;11.772;2023-07-02T15:03:31;25.00;91.40
46117;DHT22;32591;48.102;11.772;2023-07-02T15:06:09;25.30;91.40
46117;DHT22;32591;48.102;11.772;2023-07-02T15:08:39;25.00;90.50
46117;DHT22;32591;48.102;11.772;2023-07-02T15:11:06;24.90;90.40
46117;DHT22;32591;48.102;11.772;2023-07-02T15:13:34;24.90;90.30
46117;DHT22;32591;48.102;11.772;2023-07-02T15:16:03;24.70;90.80
46117;DHT22;32591;48.102;11.772;2023-07-02T15:18:30;24.60;91.00
46117;DHT22;32591;48.102;11.772;2023-07-02T15:20:57;24.70;91.50